KGTR/GTR METAR and TAF weather

Enter ICAO airport designator
Station Type Date Time Source
KGTR METAR 2022/12/04 04:56 UTC NOAA

KGTR 040456Z AUTO 35005KT 10SM CLR 09/06 A3036 RMK AO2 SLP287 T00940061


Station Type Date Time Source
KGTR Decoded METAR 2022/12/04 04:56 UTC NOAA

Columbus/West Point/Starkville, Golden Triangle Regional Airport, MS, United States (KGTR) 33-27N 088-35W
Dec 03, 2022 - 11:56 PM EST / 2022.12.04 0456 UTC
Wind: from the N (350 degrees) at 6 MPH (5 KT):0
Visibility: 10 mile(s):0
Sky conditions: clear
Temperature: 48.9 F (9.4 C)
Dew Point: 43.0 F (6.1 C)
Relative Humidity: 79%
Pressure (altimeter): 30.36 in. Hg (1028 hPa)
ob: KGTR 040456Z AUTO 35005KT 10SM CLR 09/06 A3036 RMK AO2 SLP287 T00940061
cycle: 5

Station Type Date Time Source
KGTR TAF 2022/12/03 18:30 UTC NOAA

TAF KGTR 031728Z 0318/0418 31005KT P6SM SCT015 BKN021
FM040400 35006KT P6SM BKN015
FM040700 36004KT P6SM OVC250
FM041500 36005KT P6SM OVC100

Example: see airport list